Time;durP1;ratioP1;P1;durP2;ratioP2;P2;SDS_P1;SDS_P2;PMS_P1;PMS_P2;Temp;Humidity;BMP_temperature;BMP_pressure;BME280_temperature;BME280_humidity;BME280_pressure;Samples;Min_cycle;Max_cycle;Signal;HPM_P1;HPM_P2
2022/11/27 00:01:33;;;;;;;12.37;6.30;;;7.30;99.90;;;;;;4994797;28;21002;-70
2022/11/27 00:03:59;;;;;;;10.77;6.90;;;7.30;99.90;;;;;;5012433;28;20883;-71
2022/11/27 00:06:27;;;;;;;11.00;6.60;;;7.30;99.90;;;;;;5023721;28;20977;-71
2022/11/27 00:08:56;;;;;;;10.90;6.20;;;7.30;99.90;;;;;;5011703;28;20482;-71
2022/11/27 00:11:24;;;;;;;11.87;6.67;;;7.20;99.90;;;;;;5028759;28;20469;-71
2022/11/27 00:13:50;;;;;;;12.47;6.03;;;7.20;99.90;;;;;;5011516;28;20501;-70
2022/11/27 00:16:17;;;;;;;11.73;6.43;;;7.20;99.90;;;;;;4995967;28;21009;-71
2022/11/27 00:18:43;;;;;;;9.50;5.43;;;7.20;99.90;;;;;;4994679;28;20455;-71
2022/11/27 00:21:15;;;;;;;13.63;4.90;;;7.30;99.90;;;;;;5012076;28;20467;-70
2022/11/27 00:23:41;;;;;;;10.57;6.10;;;7.30;99.90;;;;;;4980333;28;20481;-70
2022/11/27 00:26:07;;;;;;;10.70;6.70;;;7.20;99.90;;;;;;4999724;28;20458;-71
2022/11/27 00:28:33;;;;;;;7.93;5.77;;;7.20;99.90;;;;;;4991047;28;20448;-71
2022/11/27 00:31:01;;;;;;;9.07;5.50;;;7.20;99.90;;;;;;5011516;28;20463;-70
2022/11/27 00:33:27;;;;;;;9.17;5.37;;;7.20;99.90;;;;;;5026964;28;20467;-70
2022/11/27 00:35:53;;;;;;;9.50;5.97;;;7.20;99.90;;;;;;5010446;28;20551;-72
2022/11/27 00:38:19;;;;;;;8.43;5.70;;;7.20;99.90;;;;;;4997945;28;20221;-71
2022/11/27 00:40:45;;;;;;;8.73;5.40;;;7.20;99.90;;;;;;5023939;28;20244;-71
2022/11/27 00:43:11;;;;;;;7.70;5.03;;;7.30;99.90;;;;;;5029136;28;20466;-72
2022/11/27 00:45:37;;;;;;;10.40;5.23;;;7.30;99.90;;;;;;4984465;28;20511;-71
2022/11/27 00:48:03;;;;;;;9.67;5.80;;;7.30;99.90;;;;;;4985199;28;20221;-70
2022/11/27 00:50:30;;;;;;;6.87;5.33;;;7.30;99.90;;;;;;4980223;28;20225;-68
2022/11/27 00:52:57;;;;;;;10.30;5.47;;;7.30;99.90;;;;;;4993163;28;20465;-71
2022/11/27 00:55:23;;;;;;;10.13;5.83;;;7.30;99.90;;;;;;5000493;28;21021;-70
2022/11/27 00:57:49;;;;;;;13.23;6.10;;;7.30;99.90;;;;;;4996161;28;20531;-70
2022/11/27 01:00:15;;;;;;;10.50;5.10;;;7.40;99.90;;;;;;5005290;28;20221;-71
2022/11/27 01:02:41;;;;;;;9.50;6.53;;;7.30;99.90;;;;;;4983722;28;20229;-69
2022/11/27 01:05:07;;;;;;;10.07;5.60;;;7.40;99.90;;;;;;5021807;28;20471;-70
2022/11/27 01:07:32;;;;;;;13.83;4.93;;;7.40;99.90;;;;;;5011320;28;20223;-70
2022/11/27 01:09:58;;;;;;;12.70;6.03;;;7.40;99.90;;;;;;5026046;28;20538;-71
2022/11/27 01:12:24;;;;;;;10.03;5.77;;;7.40;99.90;;;;;;4998805;28;20241;-71
2022/11/27 01:14:49;;;;;;;19.80;6.43;;;7.40;99.90;;;;;;5025942;28;20307;-70
2022/11/27 01:17:15;;;;;;;10.10;6.80;;;7.40;99.90;;;;;;5041045;28;20209;-70
2022/11/27 01:19:41;;;;;;;10.37;6.43;;;7.40;99.90;;;;;;5009975;28;20358;-70
2022/11/27 01:22:06;;;;;;;10.43;7.13;;;7.40;99.90;;;;;;5011755;28;20254;-70
2022/11/27 01:24:32;;;;;;;8.30;6.10;;;7.40;99.90;;;;;;5010457;28;20274;-69
2022/11/27 01:26:57;;;;;;;10.10;6.70;;;7.40;99.90;;;;;;5011768;28;20223;-69
2022/11/27 01:29:23;;;;;;;10.13;6.00;;;7.40;99.90;;;;;;5002039;28;20215;-70
2022/11/27 01:31:49;;;;;;;13.37;6.20;;;7.40;99.90;;;;;;5003550;28;20228;-71
2022/11/27 01:34:16;;;;;;;9.33;5.97;;;7.40;99.90;;;;;;5012124;28;20227;-71
2022/11/27 01:36:43;;;;;;;12.87;6.40;;;7.40;99.90;;;;;;4985833;28;20221;-71
2022/11/27 01:39:14;;;;;;;11.60;6.17;;;7.40;99.90;;;;;;5004998;28;20456;-71
2022/11/27 01:41:40;;;;;;;12.03;5.87;;;7.40;99.90;;;;;;5012773;28;20468;-69
2022/11/27 01:44:24;;;;;;;10.10;6.37;;;7.40;99.90;;;;;;5028522;28;20550;-70
2022/11/27 01:46:55;;;;;;;12.10;6.10;;;7.40;99.90;;;;;;5020219;28;20518;-70
2022/11/27 01:49:22;;;;;;;10.33;5.57;;;7.40;99.90;;;;;;4993332;28;20474;-70
2022/11/27 01:52:05;;;;;;;11.00;5.93;;;7.40;99.90;;;;;;5000399;28;20457;-70
2022/11/27 01:54:50;;;;;;;10.63;6.17;;;7.40;99.90;;;;;;4978616;28;20452;-70
2022/11/27 01:57:20;;;;;;;16.30;7.40;;;7.40;99.90;;;;;;4996431;28;20464;-70
2022/11/27 01:59:48;;;;;;;11.70;6.30;;;7.40;99.90;;;;;;5024435;28;21052;-71
2022/11/27 02:02:14;;;;;;;9.30;6.80;;;7.40;99.90;;;;;;4994005;28;20487;-71
2022/11/27 02:04:39;;;;;;;13.33;7.77;;;7.40;99.90;;;;;;4997495;28;20472;-70
2022/11/27 02:07:05;;;;;;;16.70;8.00;;;7.40;99.90;;;;;;4994202;28;20205;-69
2022/11/27 02:09:31;;;;;;;12.70;7.13;;;7.40;99.90;;;;;;4995743;28;20275;-71
2022/11/27 02:12:01;;;;;;;15.00;7.17;;;7.40;99.90;;;;;;4999184;28;20224;-71
2022/11/27 02:14:35;;;;;;;12.97;7.20;;;7.40;99.90;;;;;;5003217;28;20453;-71
2022/11/27 02:17:12;;;;;;;19.57;8.53;;;7.40;99.90;;;;;;4997613;28;20473;-70
2022/11/27 02:20:11;;;;;;;16.70;8.70;;;7.40;99.90;;;;;;5011775;28;20457;-71
2022/11/27 02:22:43;;;;;;;12.20;7.90;;;7.40;99.90;;;;;;5008916;28;20550;-70
2022/11/27 02:25:27;;;;;;;10.23;6.80;;;7.40;99.90;;;;;;5012773;28;20899;-71
2022/11/27 02:28:21;;;;;;;11.70;7.27;;;7.40;99.90;;;;;;5015736;28;20994;-70
2022/11/27 02:31:08;;;;;;;11.37;7.23;;;7.40;99.90;;;;;;4969628;28;20958;-70
2022/11/27 02:33:42;;;;;;;15.77;7.07;;;7.40;99.90;;;;;;5026318;28;20475;-70
2022/11/27 02:36:16;;;;;;;11.10;7.20;;;7.40;99.90;;;;;;4993000;28;20464;-72
2022/11/27 02:39:07;;;;;;;11.80;7.07;;;7.40;99.90;;;;;;5006975;28;20498;-72
2022/11/27 02:41:42;;;;;;;13.00;7.13;;;7.40;99.90;;;;;;4993699;28;20955;-69
2022/11/27 02:44:09;;;;;;;14.87;7.10;;;7.40;99.90;;;;;;5009782;28;20463;-70
2022/11/27 02:46:36;;;;;;;17.17;6.93;;;7.40;99.90;;;;;;4991338;28;20463;-70
2022/11/27 02:49:07;;;;;;;13.50;7.47;;;7.40;99.90;;;;;;4997998;28;20472;-71
2022/11/27 02:51:41;;;;;;;14.50;8.30;;;7.30;99.90;;;;;;5017397;28;20464;-69
2022/11/27 02:54:12;;;;;;;12.67;9.03;;;7.30;99.90;;;;;;4992901;28;21045;-70
2022/11/27 02:56:41;;;;;;;17.13;8.20;;;7.20;99.90;;;;;;5002534;28;20461;-71
2022/11/27 02:59:10;;;;;;;14.80;8.60;;;7.10;99.90;;;;;;5019791;28;20535;-71
2022/11/27 03:01:42;;;;;;;20.53;8.73;;;7.10;99.90;;;;;;5002375;28;20468;-71
2022/11/27 03:04:13;;;;;;;12.60;7.90;;;7.00;99.90;;;;;;4955581;28;20463;-71
2022/11/27 03:06:44;;;;;;;11.37;7.80;;;7.10;99.90;;;;;;5027627;28;20462;-71
2022/11/27 03:09:19;;;;;;;14.30;8.10;;;7.10;99.90;;;;;;5010142;28;20539;-71
2022/11/27 03:11:46;;;;;;;16.30;8.87;;;7.10;99.90;;;;;;5006200;28;20517;-71
2022/11/27 03:14:13;;;;;;;16.57;8.17;;;7.20;99.90;;;;;;5009896;28;20523;-71
2022/11/27 03:17:03;;;;;;;17.37;11.73;;;7.20;99.90;;;;;;5010971;28;20452;-71
2022/11/27 03:19:47;;;;;;;16.73;8.63;;;7.20;99.90;;;;;;5000901;28;20504;-69
2022/11/27 03:22:13;;;;;;;19.10;9.17;;;7.20;99.90;;;;;;5005256;28;20503;-71
2022/11/27 03:24:39;;;;;;;17.93;8.60;;;7.20;99.90;;;;;;5010030;28;20480;-71
2022/11/27 03:27:05;;;;;;;16.10;8.97;;;7.30;99.90;;;;;;5005837;28;20813;-71
2022/11/27 03:29:51;;;;;;;23.10;10.20;;;7.30;99.90;;;;;;4992452;28;20700;-71
2022/11/27 03:32:17;;;;;;;14.27;9.40;;;7.30;99.90;;;;;;4983019;28;20549;-69
2022/11/27 03:34:43;;;;;;;13.23;8.30;;;7.20;99.90;;;;;;5001101;28;20586;-70
2022/11/27 03:37:09;;;;;;;21.50;9.87;;;7.30;99.90;;;;;;5010212;28;20221;-75
2022/11/27 03:39:35;;;;;;;21.00;10.27;;;7.30;99.90;;;;;;5030877;28;20459;-71
2022/11/27 03:42:52;;;;;;;15.70;8.17;;;7.30;99.90;;;;;;4989437;28;20468;-72
2022/11/27 03:45:42;;;;;;;14.60;8.10;;;7.30;99.90;;;;;;4985256;28;20452;-71
2022/11/27 03:48:20;;;;;;;19.37;9.50;;;7.30;99.90;;;;;;4972868;28;20454;-70
2022/11/27 03:51:03;;;;;;;15.07;8.73;;;7.20;99.90;;;;;;4998806;28;20455;-71
2022/11/27 03:53:46;;;;;;;17.57;9.90;;;7.20;99.90;;;;;;5006788;28;22520;-71
2022/11/27 03:56:33;;;;;;;15.37;9.03;;;7.20;99.90;;;;;;5002362;28;20546;-71
2022/11/27 03:59:11;;;;;;;14.43;8.37;;;7.20;99.90;;;;;;5004621;28;20443;-71
2022/11/27 04:01:37;;;;;;;11.33;7.93;;;7.20;99.90;;;;;;5011365;28;20463;-70
2022/11/27 04:04:03;;;;;;;16.17;9.17;;;7.30;99.90;;;;;;5003341;28;20464;-70
2022/11/27 04:06:29;;;;;;;14.40;9.10;;;7.30;99.90;;;;;;5012211;28;20552;-71
2022/11/27 04:08:54;;;;;;;20.47;9.70;;;7.30;99.90;;;;;;5002452;28;20591;-71
2022/11/27 04:11:23;;;;;;;18.97;8.33;;;7.30;99.90;;;;;;5014952;28;20255;-71
2022/11/27 04:13:50;;;;;;;11.67;7.67;;;7.30;99.90;;;;;;5028108;28;20569;-71
2022/11/27 04:16:17;;;;;;;17.73;9.27;;;7.30;99.90;;;;;;5012558;28;20998;-71
2022/11/27 04:18:42;;;;;;;13.77;9.13;;;7.30;99.90;;;;;;4991959;28;20444;-72
2022/11/27 04:21:08;;;;;;;17.77;8.47;;;7.30;99.90;;;;;;4968514;28;20529;-71
2022/11/27 04:23:36;;;;;;;13.73;8.87;;;7.30;99.90;;;;;;4992361;28;20258;-72
2022/11/27 04:26:02;;;;;;;14.13;8.37;;;7.20;99.90;;;;;;4992442;28;20577;-71
2022/11/27 04:28:27;;;;;;;12.80;7.80;;;7.20;99.90;;;;;;4989889;28;20448;-69
2022/11/27 04:30:53;;;;;;;18.17;7.97;;;7.20;99.90;;;;;;5001262;28;20208;-71
2022/11/27 04:33:19;;;;;;;13.40;8.20;;;7.20;99.90;;;;;;5001851;28;20772;-68
2022/11/27 04:35:45;;;;;;;10.63;6.50;;;7.20;99.90;;;;;;4991763;28;20762;-71
2022/11/27 04:38:11;;;;;;;18.93;9.03;;;7.20;99.90;;;;;;5000359;28;20444;-71
2022/11/27 04:40:37;;;;;;;13.40;7.87;;;7.20;99.90;;;;;;5010490;28;20239;-71
2022/11/27 04:43:02;;;;;;;20.27;8.40;;;7.30;99.90;;;;;;5024815;28;20910;-71
2022/11/27 04:45:28;;;;;;;11.53;7.50;;;7.20;99.90;;;;;;5025703;28;20301;-71
2022/11/27 04:47:54;;;;;;;17.40;8.57;;;7.30;99.90;;;;;;5011882;28;20223;-72
2022/11/27 04:50:19;;;;;;;12.60;7.37;;;7.20;99.90;;;;;;5029401;28;20220;-71
2022/11/27 04:52:45;;;;;;;15.10;7.40;;;7.20;99.90;;;;;;5007015;28;20259;-71
2022/11/27 04:55:11;;;;;;;18.87;9.00;;;7.30;99.90;;;;;;5011035;28;20216;-71
2022/11/27 04:57:36;;;;;;;12.40;7.10;;;7.20;99.90;;;;;;5027236;28;20216;-70
2022/11/27 05:00:03;;;;;;;15.53;8.37;;;7.20;99.90;;;;;;5024958;28;20292;-70
2022/11/27 05:02:29;;;;;;;14.40;8.60;;;7.20;99.90;;;;;;5007028;28;20231;-70
2022/11/27 05:04:55;;;;;;;11.23;8.07;;;7.20;99.90;;;;;;5011028;28;20455;-71
2022/11/27 05:07:20;;;;;;;11.97;7.63;;;7.20;99.90;;;;;;5029387;28;20326;-71
2022/11/27 05:09:46;;;;;;;11.50;7.53;;;7.20;99.90;;;;;;5010684;28;20216;-70
2022/11/27 05:12:12;;;;;;;18.77;8.37;;;7.20;99.90;;;;;;5011240;28;20219;-70
2022/11/27 05:14:37;;;;;;;10.80;7.17;;;7.20;99.90;;;;;;5014877;28;20223;-70
2022/11/27 05:17:03;;;;;;;18.67;8.30;;;7.10;99.90;;;;;;5032148;28;20311;-70
2022/11/27 05:19:30;;;;;;;9.93;7.30;;;7.10;99.90;;;;;;5048326;28;20390;-69
2022/11/27 05:21:56;;;;;;;15.23;8.23;;;7.10;99.90;;;;;;5016369;28;20307;-71
2022/11/27 05:24:24;;;;;;;10.73;7.40;;;7.10;99.90;;;;;;5015445;28;20447;-70
2022/11/27 05:26:50;;;;;;;14.40;7.93;;;7.10;99.90;;;;;;5014493;28;20832;-71
2022/11/27 05:29:17;;;;;;;11.27;7.30;;;7.10;99.90;;;;;;5015308;28;20452;-71
2022/11/27 05:31:43;;;;;;;9.57;6.63;;;7.10;99.90;;;;;;4984190;28;20467;-71
2022/11/27 05:34:11;;;;;;;9.97;7.40;;;7.10;99.90;;;;;;5015907;28;20469;-72
2022/11/27 05:36:37;;;;;;;11.13;7.00;;;7.10;99.90;;;;;;5011791;28;20228;-71
2022/11/27 05:39:07;;;;;;;15.37;7.50;;;7.10;99.90;;;;;;4986783;28;20447;-71
2022/11/27 05:41:34;;;;;;;14.63;7.90;;;7.00;99.90;;;;;;5025664;28;20252;-71
2022/11/27 05:44:00;;;;;;;16.23;8.20;;;7.10;99.90;;;;;;4988103;28;20534;-71
2022/11/27 05:46:26;;;;;;;11.67;7.60;;;7.10;99.90;;;;;;4994272;28;20483;-70
2022/11/27 05:48:51;;;;;;;15.00;7.47;;;7.00;99.90;;;;;;5012565;28;20705;-71
2022/11/27 05:51:17;;;;;;;11.37;7.10;;;7.00;99.90;;;;;;4982266;28;20236;-70
2022/11/27 05:53:43;;;;;;;11.67;7.23;;;7.00;99.90;;;;;;4989458;28;20209;-71
2022/11/27 05:56:12;;;;;;;13.43;7.73;;;7.00;99.90;;;;;;5016919;28;20456;-71
2022/11/27 05:58:38;;;;;;;19.03;8.40;;;7.00;99.90;;;;;;5032318;28;20467;-70
2022/11/27 06:01:05;;;;;;;16.33;8.20;;;7.00;99.90;;;;;;5024260;28;20534;-71
2022/11/27 06:03:31;;;;;;;16.30;8.03;;;7.00;99.90;;;;;;4995397;28;20460;-70
2022/11/27 06:05:57;;;;;;;14.03;7.00;;;7.00;99.90;;;;;;4996031;28;20444;-71
2022/11/27 06:08:22;;;;;;;16.53;7.17;;;7.00;99.90;;;;;;4995256;28;20704;-71
2022/11/27 06:10:49;;;;;;;11.00;6.50;;;7.00;99.90;;;;;;5012795;28;20213;-71
2022/11/27 06:13:14;;;;;;;11.07;7.13;;;7.00;99.90;;;;;;5022897;28;20209;-71
2022/11/27 06:15:41;;;;;;;13.30;6.67;;;7.00;99.90;;;;;;5015118;28;20447;-71
2022/11/27 06:18:07;;;;;;;9.93;6.80;;;7.00;99.90;;;;;;4996817;28;20451;-71
2022/11/27 06:20:33;;;;;;;10.60;7.27;;;6.90;99.90;;;;;;5014355;28;20493;-70
2022/11/27 06:22:58;;;;;;;14.10;7.17;;;6.90;99.90;;;;;;5032155;28;20471;-71
2022/11/27 06:25:25;;;;;;;13.60;7.57;;;6.90;99.90;;;;;;5012878;28;20229;-70
2022/11/27 06:27:51;;;;;;;17.60;8.30;;;6.90;99.90;;;;;;4998050;28;20221;-71
2022/11/27 06:30:17;;;;;;;18.37;8.67;;;6.80;99.90;;;;;;5030485;28;20460;-72
2022/11/27 06:32:43;;;;;;;22.93;8.40;;;6.90;99.90;;;;;;5014161;28;20455;-71
2022/11/27 06:35:09;;;;;;;10.50;6.70;;;6.90;99.90;;;;;;5023987;28;20220;-71
2022/11/27 06:37:35;;;;;;;12.97;7.07;;;6.90;99.90;;;;;;5031880;28;20225;-71
2022/11/27 06:40:01;;;;;;;12.43;7.60;;;6.80;99.90;;;;;;5014169;28;20459;-71
2022/11/27 06:42:29;;;;;;;13.63;8.27;;;6.80;99.90;;;;;;5008371;28;20995;-71
2022/11/27 06:44:55;;;;;;;16.87;8.03;;;6.80;99.90;;;;;;5004166;28;20224;-72
2022/11/27 06:47:21;;;;;;;17.87;9.27;;;6.80;99.90;;;;;;5010471;28;20577;-72
2022/11/27 06:49:46;;;;;;;14.40;8.70;;;6.80;99.90;;;;;;5005562;28;20534;-69
2022/11/27 06:52:12;;;;;;;21.13;9.30;;;6.80;99.90;;;;;;5031197;28;20220;-70
2022/11/27 06:54:38;;;;;;;22.30;10.03;;;6.80;99.90;;;;;;5014666;28;20224;-70
2022/11/27 06:57:04;;;;;;;22.30;11.63;;;6.80;99.90;;;;;;5013747;28;20224;-71
2022/11/27 06:59:29;;;;;;;17.07;8.63;;;6.80;99.90;;;;;;5022916;28;20228;-68
2022/11/27 07:01:55;;;;;;;17.00;7.87;;;6.70;99.90;;;;;;5045936;28;20220;-70
2022/11/27 07:04:21;;;;;;;17.10;8.70;;;6.70;99.90;;;;;;5026309;28;20716;-68
2022/11/27 07:06:47;;;;;;;18.13;9.87;;;6.70;99.90;;;;;;5011402;28;20224;-70
2022/11/27 07:09:12;;;;;;;11.80;7.50;;;6.80;99.90;;;;;;5030403;28;20223;-71
2022/11/27 07:11:38;;;;;;;13.60;8.60;;;6.70;99.90;;;;;;5007879;28;20307;-70
2022/11/27 07:14:05;;;;;;;21.03;10.73;;;6.80;99.90;;;;;;5012911;28;20213;-70
2022/11/27 07:16:33;;;;;;;20.23;12.30;;;6.70;99.90;;;;;;5013630;28;20223;-70
2022/11/27 07:19:04;;;;;;;34.33;15.80;;;6.70;99.90;;;;;;5012484;28;20476;-70
2022/11/27 07:21:30;;;;;;;26.87;13.00;;;6.70;99.90;;;;;;5023160;28;20464;-70
2022/11/27 07:23:56;;;;;;;22.97;10.60;;;6.70;99.90;;;;;;4996126;28;20467;-70
2022/11/27 07:26:24;;;;;;;17.80;10.27;;;6.60;99.90;;;;;;5008446;28;20517;-70
2022/11/27 07:28:51;;;;;;;20.63;10.33;;;6.60;99.90;;;;;;5011320;28;20224;-70
2022/11/27 07:31:25;;;;;;;26.67;12.50;;;6.60;99.90;;;;;;4987217;28;20979;-70
2022/11/27 07:33:51;;;;;;;21.70;10.43;;;6.60;99.90;;;;;;5010707;28;20543;-70
2022/11/27 07:36:19;;;;;;;24.80;13.70;;;6.60;99.90;;;;;;5030268;28;20451;-71
2022/11/27 07:38:46;;;;;;;37.47;17.37;;;6.60;99.90;;;;;;4994796;28;20531;-70
2022/11/27 07:41:12;;;;;;;36.43;18.83;;;6.60;99.90;;;;;;5044513;28;20476;-70
2022/11/27 07:43:39;;;;;;;30.93;17.00;;;6.60;99.90;;;;;;5031162;28;20513;-70
2022/11/27 07:46:14;;;;;;;26.67;14.70;;;6.50;99.90;;;;;;4992712;28;20570;-70
2022/11/27 07:48:40;;;;;;;32.53;15.50;;;6.60;99.90;;;;;;5002377;28;20533;-69
2022/11/27 07:51:11;;;;;;;23.13;14.30;;;6.60;99.90;;;;;;4982891;28;20536;-70
2022/11/27 07:53:38;;;;;;;27.53;14.50;;;6.50;99.90;;;;;;4995695;28;20275;-70
2022/11/27 07:56:05;;;;;;;30.73;14.03;;;6.60;99.90;;;;;;4993259;28;20562;-70
2022/11/27 07:58:31;;;;;;;33.73;16.87;;;6.60;99.90;;;;;;5013129;28;20443;-70
2022/11/27 08:00:57;;;;;;;34.80;18.50;;;6.60;99.90;;;;;;4985728;28;20453;-70
2022/11/27 08:03:23;;;;;;;37.97;19.50;;;6.60;99.90;;;;;;5014273;28;20224;-69
2022/11/27 08:05:48;;;;;;;41.17;20.70;;;6.50;99.90;;;;;;5006464;28;20221;-71
2022/11/27 08:08:14;;;;;;;34.97;19.27;;;6.40;99.90;;;;;;5028770;28;20461;-69
2022/11/27 08:10:41;;;;;;;34.73;16.97;;;6.40;99.90;;;;;;5010647;28;20212;-70
2022/11/27 08:13:07;;;;;;;26.27;14.37;;;6.40;99.90;;;;;;5018555;28;20309;-70
2022/11/27 08:15:33;;;;;;;21.87;14.17;;;6.50;99.90;;;;;;4979556;28;20440;-70
2022/11/27 08:17:59;;;;;;;25.30;14.70;;;6.50;99.90;;;;;;5011750;28;20543;-70
2022/11/27 08:20:25;;;;;;;27.23;14.83;;;6.50;99.90;;;;;;5005223;28;20455;-70
2022/11/27 08:22:51;;;;;;;27.53;16.10;;;6.50;99.90;;;;;;4996127;28;20463;-70
2022/11/27 08:25:17;;;;;;;31.40;16.20;;;6.50;99.90;;;;;;5029053;28;20499;-70
2022/11/27 08:27:43;;;;;;;26.33;14.57;;;6.50;99.90;;;;;;5045209;28;20468;-69
2022/11/27 08:30:09;;;;;;;23.60;12.43;;;6.50;99.90;;;;;;4994897;28;20218;-70
2022/11/27 08:32:38;;;;;;;26.23;11.07;;;6.50;99.90;;;;;;5011426;28;20942;-70
2022/11/27 08:35:05;;;;;;;22.30;11.73;;;6.40;99.90;;;;;;5008910;28;20453;-70
2022/11/27 08:37:31;;;;;;;17.53;11.10;;;6.40;99.90;;;;;;5011674;28;20455;-70
2022/11/27 08:39:57;;;;;;;17.00;10.47;;;6.40;99.90;;;;;;5015557;28;20999;-70
2022/11/27 08:42:22;;;;;;;17.57;10.30;;;6.40;99.90;;;;;;5009399;28;20475;-70
2022/11/27 08:44:48;;;;;;;19.73;11.60;;;6.40;99.90;;;;;;5017524;28;20222;-70
2022/11/27 08:47:15;;;;;;;16.27;9.50;;;6.40;99.90;;;;;;5004269;28;20201;-70
2022/11/27 08:49:42;;;;;;;20.07;10.63;;;6.30;99.90;;;;;;5029150;28;20240;-70
2022/11/27 08:52:08;;;;;;;18.77;10.87;;;6.30;99.90;;;;;;5009480;28;20459;-69
2022/11/27 08:54:34;;;;;;;23.37;11.07;;;6.30;99.90;;;;;;5008445;28;20471;-70
2022/11/27 08:56:59;;;;;;;23.53;10.70;;;6.40;99.90;;;;;;4991148;28;20443;-71
2022/11/27 08:59:25;;;;;;;14.77;9.67;;;6.40;99.90;;;;;;4978873;28;20232;-71
2022/11/27 09:01:51;;;;;;;13.53;9.03;;;6.40;99.90;;;;;;4990302;28;20237;-70
2022/11/27 09:04:16;;;;;;;16.57;9.47;;;6.40;99.90;;;;;;5011170;28;20706;-70
2022/11/27 09:06:42;;;;;;;13.50;9.03;;;6.40;99.90;;;;;;5028791;28;20224;-71
2022/11/27 09:09:08;;;;;;;21.60;11.23;;;6.40;99.90;;;;;;5016146;28;20217;-70
2022/11/27 09:11:35;;;;;;;21.53;11.30;;;6.40;99.90;;;;;;5001461;28;20228;-69
2022/11/27 09:14:02;;;;;;;16.77;10.80;;;6.40;99.90;;;;;;4983463;28;20614;-70
2022/11/27 09:16:29;;;;;;;18.47;11.20;;;6.30;99.90;;;;;;4982959;28;20517;-70
2022/11/27 09:18:56;;;;;;;19.00;11.70;;;6.40;99.90;;;;;;5029088;28;20491;-70
2022/11/27 09:21:26;;;;;;;17.93;11.97;;;6.40;99.90;;;;;;5003641;28;20529;-70
2022/11/27 09:23:56;;;;;;;20.40;11.80;;;6.50;99.90;;;;;;4995552;28;20459;-71
2022/11/27 09:26:24;;;;;;;23.37;12.30;;;6.50;99.90;;;;;;5028876;28;20501;-70
2022/11/27 09:28:51;;;;;;;20.77;12.90;;;6.50;99.90;;;;;;5023353;28;20981;-71
2022/11/27 09:31:17;;;;;;;21.80;12.13;;;6.50;99.90;;;;;;4989041;28;20956;-71
2022/11/27 09:33:43;;;;;;;18.97;11.80;;;6.50;99.90;;;;;;5009049;28;20476;-70
2022/11/27 09:36:12;;;;;;;18.40;10.07;;;6.50;99.90;;;;;;5007250;28;20512;-70
2022/11/27 09:38:38;;;;;;;29.67;14.60;;;6.50;99.90;;;;;;5007316;28;20452;-70
2022/11/27 09:41:15;;;;;;;21.27;12.80;;;6.50;99.90;;;;;;5005861;28;20467;-72
2022/11/27 09:44:05;;;;;;;22.10;12.37;;;6.50;99.90;;;;;;5008411;28;20213;-71
2022/11/27 09:46:38;;;;;;;21.47;11.73;;;6.50;99.90;;;;;;4983911;28;20444;-71
2022/11/27 09:49:08;;;;;;;21.53;12.70;;;6.50;99.90;;;;;;5005753;28;20536;-70
2022/11/27 09:51:36;;;;;;;27.07;13.73;;;6.50;99.90;;;;;;5015452;28;20522;-70
2022/11/27 09:54:16;;;;;;;27.20;14.40;;;6.50;99.90;;;;;;5025032;28;20451;-72
2022/11/27 09:56:44;;;;;;;24.77;12.00;;;6.60;99.90;;;;;;4984583;28;20476;-70
2022/11/27 09:59:38;;;;;;;21.67;12.40;;;6.50;99.90;;;;;;5005040;28;20499;-71
2022/11/27 10:02:17;;;;;;;19.40;11.20;;;6.60;99.90;;;;;;5018773;28;20472;-70
2022/11/27 10:04:43;;;;;;;13.73;9.30;;;6.50;99.90;;;;;;5003660;28;20461;-70
2022/11/27 10:07:36;;;;;;;16.63;9.30;;;6.50;99.90;;;;;;5005764;28;20467;-70
2022/11/27 10:10:18;;;;;;;18.20;10.20;;;6.50;99.90;;;;;;5004204;28;20487;-71
2022/11/27 10:12:52;;;;;;;13.60;8.00;;;6.50;99.90;;;;;;5008886;28;20518;-70
2022/11/27 10:16:07;;;;;;;19.80;9.20;;;6.50;99.90;;;;;;4992208;28;20464;-71
2022/11/27 10:18:56;;;;;;;16.07;11.30;;;6.50;99.90;;;;;;4981769;28;20448;-70
2022/11/27 10:21:48;;;;;;;17.63;12.43;;;6.50;99.90;;;;;;4990850;28;21097;-70
2022/11/27 10:24:50;;;;;;;18.07;12.50;;;6.50;99.90;;;;;;4999508;28;20459;-70
2022/11/27 10:27:23;;;;;;;17.00;10.17;;;6.60;99.90;;;;;;4960336;28;20463;-70
2022/11/27 10:29:53;;;;;;;17.07;11.20;;;6.60;99.90;;;;;;5010560;28;20547;-70
2022/11/27 10:32:22;;;;;;;16.93;11.27;;;6.60;99.90;;;;;;5001519;28;20452;-70
2022/11/27 10:34:53;;;;;;;15.40;10.50;;;6.60;99.90;;;;;;4985936;28;20441;-70
2022/11/27 10:37:50;;;;;;;17.97;11.73;;;6.50;99.90;;;;;;4994655;28;20471;-70
2022/11/27 10:40:30;;;;;;;22.27;13.27;;;6.60;99.90;;;;;;4987017;28;20539;-70
2022/11/27 10:43:06;;;;;;;19.60;12.47;;;6.60;99.90;;;;;;5003594;28;20474;-70
2022/11/27 10:45:48;;;;;;;23.47;15.00;;;6.60;99.90;;;;;;4996607;28;20457;-70
2022/11/27 10:48:14;;;;;;;35.37;27.27;;;6.70;99.90;;;;;;5005541;28;20466;-70
2022/11/27 10:50:40;;;;;;;36.57;30.63;;;6.60;99.90;;;;;;5003994;28;20459;-71
2022/11/27 10:53:20;;;;;;;36.10;24.60;;;6.60;99.90;;;;;;5003554;28;20482;-71
2022/11/27 10:56:05;;;;;;;32.47;24.07;;;6.60;99.90;;;;;;5005877;28;20459;-71
2022/11/27 10:58:49;;;;;;;36.57;24.20;;;6.60;99.90;;;;;;5023436;28;20447;-70
2022/11/27 11:01:17;;;;;;;26.17;19.67;;;6.60;99.90;;;;;;5006366;28;20483;-70
2022/11/27 11:03:43;;;;;;;28.50;18.00;;;6.50;99.90;;;;;;5007849;28;20448;-70
2022/11/27 11:06:22;;;;;;;27.93;18.50;;;6.50;99.90;;;;;;5009273;28;20443;-70
2022/11/27 11:09:00;;;;;;;22.87;15.10;;;6.50;99.90;;;;;;5004932;28;20471;-71
2022/11/27 11:11:26;;;;;;;20.13;12.93;;;6.50;99.90;;;;;;5020304;28;20536;-70
2022/11/27 11:13:53;;;;;;;19.40;13.83;;;6.50;99.90;;;;;;5000191;28;20479;-73
2022/11/27 11:16:29;;;;;;;17.43;12.83;;;6.50;99.90;;;;;;4985839;28;20448;-73
2022/11/27 11:19:02;;;;;;;18.70;10.60;;;6.50;99.90;;;;;;4992079;28;20459;-73
2022/11/27 11:21:34;;;;;;;18.73;10.77;;;6.60;99.90;;;;;;5005206;28;20476;-71
2022/11/27 11:24:04;;;;;;;18.73;11.00;;;6.60;99.90;;;;;;5010515;28;20467;-70
2022/11/27 11:26:50;;;;;;;16.33;11.07;;;6.60;99.90;;;;;;5012749;28;20482;-70
2022/11/27 11:29:25;;;;;;;16.23;10.27;;;6.60;99.90;;;;;;5030206;28;20463;-71
2022/11/27 11:31:53;;;;;;;21.10;10.80;;;6.60;99.90;;;;;;5012517;28;20443;-73
2022/11/27 11:34:27;;;;;;;19.60;11.07;;;6.70;99.90;;;;;;5012545;28;20485;-73
2022/11/27 11:37:06;;;;;;;17.23;10.90;;;6.80;99.90;;;;;;5034007;28;20475;-70
2022/11/27 11:39:51;;;;;;;18.93;11.50;;;6.80;99.90;;;;;;5011779;28;20447;-70
2022/11/27 11:42:22;;;;;;;19.60;9.97;;;6.90;99.90;;;;;;4978253;28;20479;-70
2022/11/27 11:44:54;;;;;;;16.40;10.87;;;6.90;99.90;;;;;;5029773;28;20440;-71
2022/11/27 11:47:23;;;;;;;20.97;11.80;;;6.80;99.90;;;;;;5011895;28;20463;-70
2022/11/27 11:49:50;;;;;;;19.37;12.90;;;6.90;99.90;;;;;;5011524;28;20478;-70
2022/11/27 11:52:38;;;;;;;25.03;13.40;;;6.90;99.90;;;;;;5007255;28;20861;-70
2022/11/27 11:55:13;;;;;;;17.70;11.87;;;7.00;99.90;;;;;;5030486;28;20443;-71
2022/11/27 11:57:57;;;;;;;20.97;11.23;;;7.00;99.90;;;;;;5012614;28;20454;-70
2022/11/27 12:00:25;;;;;;;19.30;10.77;;;6.90;99.90;;;;;;5011698;28;20455;-71
2022/11/27 12:02:51;;;;;;;21.53;12.30;;;6.90;99.90;;;;;;5012198;28;20505;-71
2022/11/27 12:05:36;;;;;;;26.23;12.00;;;6.90;99.90;;;;;;5012579;28;20471;-71
2022/11/27 12:08:19;;;;;;;20.77;10.97;;;7.00;99.90;;;;;;5027178;28;20232;-71
2022/11/27 12:10:57;;;;;;;16.57;11.23;;;7.10;99.90;;;;;;5003375;28;20444;-71
2022/11/27 12:13:34;;;;;;;21.50;11.20;;;7.00;99.90;;;;;;5003398;28;20487;-70
2022/11/27 12:16:34;;;;;;;21.43;12.60;;;7.00;99.90;;;;;;4994354;28;20453;-71
2022/11/27 12:19:26;;;;;;;22.40;14.40;;;7.10;99.90;;;;;;4989913;28;20526;-70
2022/11/27 12:22:04;;;;;;;30.07;16.97;;;7.20;99.90;;;;;;5012808;28;20613;-70
2022/11/27 12:24:50;;;;;;;52.20;34.20;;;7.20;99.90;;;;;;5024611;28;20448;-71
2022/11/27 12:27:38;;;;;;;61.33;39.00;;;7.20;99.90;;;;;;5006079;28;20458;-71
2022/11/27 12:30:27;;;;;;;58.23;35.83;;;7.20;99.90;;;;;;5009303;28;20468;-71
2022/11/27 12:33:25;;;;;;;44.53;25.73;;;7.20;99.90;;;;;;5026024;28;20525;-71
2022/11/27 12:35:54;;;;;;;32.07;18.50;;;7.20;99.90;;;;;;4984193;28;20452;-70
2022/11/27 12:39:08;;;;;;;42.33;21.33;;;7.10;99.90;;;;;;4998763;28;20490;-71
2022/11/27 12:41:46;;;;;;;35.93;19.87;;;7.10;99.90;;;;;;4983476;28;20460;-70
2022/11/27 12:44:34;;;;;;;40.40;20.27;;;7.10;99.90;;;;;;5016019;27;20609;-71
2022/11/27 12:47:08;;;;;;;44.70;23.47;;;7.10;99.90;;;;;;5024760;28;20537;-70
2022/11/27 12:49:45;;;;;;;40.23;22.50;;;7.10;99.90;;;;;;5026065;28;20951;-70
2022/11/27 12:52:30;;;;;;;34.23;21.43;;;7.10;99.90;;;;;;5025032;28;20451;-71
2022/11/27 12:55:05;;;;;;;30.60;18.20;;;7.20;99.90;;;;;;5010963;28;20551;-70
2022/11/27 12:57:59;;;;;;;35.67;19.23;;;7.20;99.90;;;;;;5036873;28;20949;-71
2022/11/27 13:00:28;;;;;;;31.10;17.67;;;7.20;99.90;;;;;;5034719;28;20486;-70
2022/11/27 13:03:20;;;;;;;27.43;13.97;;;7.20;99.90;;;;;;5040746;28;20585;-71